Time;durP1;ratioP1;P1;durP2;ratioP2;P2;SDS_P1;SDS_P2;PMS_P1;PMS_P2;Temp;Humidity;BMP_temperature;BMP_pressure;BME280_temperature;BME280_humidity;BME280_pressure;Samples;Min_cycle;Max_cycle;Signal;HPM_P1;HPM_P2
2023/09/20 00:00:25;;;;;;;2.90;2.20;;;16.40;99.90;;;;;;5046417;28;20838;-67
2023/09/20 00:02:50;;;;;;;3.80;2.27;;;16.40;99.90;;;;;;5045057;28;20263;-67
2023/09/20 00:05:18;;;;;;;2.70;1.93;;;16.30;99.90;;;;;;5046312;28;20513;-67
2023/09/20 00:07:43;;;;;;;2.50;1.87;;;16.30;99.90;;;;;;5049666;28;20496;-68
2023/09/20 00:10:15;;;;;;;6.07;2.67;;;16.30;99.90;;;;;;5042761;28;20421;-67
2023/09/20 00:12:42;;;;;;;6.60;2.30;;;16.30;99.90;;;;;;5044982;28;20954;-69
2023/09/20 00:15:08;;;;;;;2.90;1.77;;;16.30;99.90;;;;;;5049163;28;20452;-66
2023/09/20 00:17:36;;;;;;;2.93;1.90;;;16.20;99.90;;;;;;5048940;28;20429;-66
2023/09/20 00:20:06;;;;;;;3.60;2.17;;;16.20;99.90;;;;;;5048136;28;20451;-66
2023/09/20 00:22:32;;;;;;;2.03;1.60;;;16.20;99.90;;;;;;5054871;28;20404;-67
2023/09/20 00:24:59;;;;;;;6.13;3.43;;;16.20;99.90;;;;;;5043974;28;20785;-67
2023/09/20 00:27:25;;;;;;;4.67;2.23;;;16.20;99.90;;;;;;5052910;28;20183;-66
2023/09/20 00:29:51;;;;;;;8.23;1.93;;;16.20;99.90;;;;;;5042286;28;20807;-69
2023/09/20 00:32:17;;;;;;;3.70;1.80;;;16.30;99.90;;;;;;5046976;28;20188;-66
2023/09/20 00:34:42;;;;;;;3.00;1.77;;;16.20;99.90;;;;;;5041291;28;21064;-66
2023/09/20 00:37:08;;;;;;;5.93;2.23;;;16.20;99.90;;;;;;5045069;28;20323;-67
2023/09/20 00:39:34;;;;;;;5.00;2.00;;;16.20;99.90;;;;;;5044368;28;20556;-67
2023/09/20 00:41:59;;;;;;;6.30;2.47;;;16.20;99.90;;;;;;5045023;28;20175;-70
2023/09/20 00:44:25;;;;;;;5.33;1.97;;;16.10;99.90;;;;;;5051063;28;20716;-66
2023/09/20 00:46:52;;;;;;;5.17;2.27;;;16.10;99.90;;;;;;5047400;28;20571;-66
2023/09/20 00:49:20;;;;;;;4.27;2.23;;;16.10;99.90;;;;;;5045173;28;20467;-69
2023/09/20 00:51:47;;;;;;;7.63;2.80;;;16.10;99.90;;;;;;5052164;28;20451;-68
2023/09/20 00:54:13;;;;;;;3.80;2.40;;;16.00;99.90;;;;;;5053420;28;20477;-68
2023/09/20 00:56:40;;;;;;;3.13;1.80;;;16.10;99.90;;;;;;5047235;28;20427;-66
2023/09/20 00:59:07;;;;;;;8.53;3.10;;;16.00;99.90;;;;;;5044765;28;20985;-70
2023/09/20 01:01:37;;;;;;;5.20;1.97;;;16.00;99.90;;;;;;5050580;28;20417;-67
2023/09/20 01:04:05;;;;;;;9.63;2.80;;;15.90;99.90;;;;;;5050060;28;20474;-66
2023/09/20 01:06:32;;;;;;;4.03;2.40;;;16.00;99.90;;;;;;5046928;28;20922;-67
2023/09/20 01:08:58;;;;;;;5.23;2.37;;;16.00;99.90;;;;;;5052763;28;20435;-66
2023/09/20 01:11:25;;;;;;;2.20;2.00;;;16.00;99.90;;;;;;5044586;28;20837;-67
2023/09/20 01:13:51;;;;;;;4.93;2.03;;;16.00;99.90;;;;;;5046521;28;20473;-67
2023/09/20 01:16:17;;;;;;;5.93;3.70;;;15.90;99.90;;;;;;5047174;28;20431;-67
2023/09/20 01:18:44;;;;;;;5.00;2.27;;;15.90;99.90;;;;;;5046127;28;20469;-70
2023/09/20 01:21:11;;;;;;;2.50;2.30;;;15.90;99.90;;;;;;5048996;28;20547;-69
2023/09/20 01:23:38;;;;;;;6.63;1.70;;;15.90;99.90;;;;;;5044641;28;20767;-66
2023/09/20 01:26:04;;;;;;;2.67;1.90;;;15.90;99.90;;;;;;5048354;28;20423;-69
2023/09/20 01:28:30;;;;;;;4.03;2.20;;;15.90;99.90;;;;;;5038558;28;20434;-68
2023/09/20 01:30:58;;;;;;;4.63;2.27;;;15.90;99.90;;;;;;5050842;28;20405;-68
2023/09/20 01:33:24;;;;;;;4.57;2.10;;;15.90;99.90;;;;;;5050248;28;20172;-68
2023/09/20 01:35:50;;;;;;;8.17;2.33;;;15.80;99.90;;;;;;5052603;28;20413;-66
2023/09/20 01:38:15;;;;;;;6.43;2.07;;;15.80;99.90;;;;;;5051634;28;21006;-66
2023/09/20 01:40:41;;;;;;;2.77;1.90;;;15.70;99.90;;;;;;5051158;28;20184;-67
2023/09/20 01:43:07;;;;;;;3.07;2.03;;;15.80;99.90;;;;;;5043798;28;20711;-68
2023/09/20 01:45:34;;;;;;;4.63;2.17;;;15.80;99.90;;;;;;5035925;28;20194;-69
2023/09/20 01:48:00;;;;;;;3.70;2.07;;;15.80;99.90;;;;;;5030679;28;20213;-67
2023/09/20 01:50:27;;;;;;;8.53;5.23;;;15.70;99.90;;;;;;5036785;28;20505;-66
2023/09/20 01:52:55;;;;;;;6.00;3.03;;;15.70;99.90;;;;;;5047890;28;20411;-71
2023/09/20 01:55:22;;;;;;;6.30;1.97;;;15.70;99.90;;;;;;5052425;28;20425;-66
2023/09/20 01:57:55;;;;;;;5.23;2.57;;;15.70;99.90;;;;;;5050082;28;20414;-66
2023/09/20 02:00:22;;;;;;;3.50;2.00;;;15.70;99.90;;;;;;5052201;28;20454;-69
2023/09/20 02:02:54;;;;;;;4.60;2.13;;;15.70;99.90;;;;;;5036135;28;20526;-67
2023/09/20 02:05:21;;;;;;;6.10;3.50;;;15.70;99.90;;;;;;5054096;28;20467;-70
2023/09/20 02:07:48;;;;;;;4.60;1.83;;;15.70;99.90;;;;;;5044341;28;20415;-67
2023/09/20 02:10:16;;;;;;;4.43;1.73;;;15.60;99.90;;;;;;5048318;28;20525;-67
2023/09/20 02:12:56;;;;;;;4.30;2.17;;;15.60;99.90;;;;;;5047927;28;20425;-67
2023/09/20 02:15:24;;;;;;;4.27;2.17;;;15.70;99.90;;;;;;5052043;28;20434;-67
2023/09/20 02:17:51;;;;;;;3.10;2.10;;;15.60;99.90;;;;;;5033375;28;20444;-69
2023/09/20 02:20:20;;;;;;;5.70;2.00;;;15.70;99.90;;;;;;5045008;28;20462;-68
2023/09/20 02:22:47;;;;;;;2.60;2.03;;;15.70;99.90;;;;;;5044286;28;20416;-75
2023/09/20 02:25:14;;;;;;;4.53;2.50;;;15.70;99.90;;;;;;5014922;28;20423;-66
2023/09/20 02:27:41;;;;;;;3.67;1.70;;;15.70;99.90;;;;;;5051699;28;20426;-67
2023/09/20 02:30:15;;;;;;;2.53;2.33;;;15.70;99.90;;;;;;5034843;28;20960;-68
2023/09/20 02:32:50;;;;;;;2.10;2.00;;;15.70;99.90;;;;;;5046746;28;20423;-67
2023/09/20 02:35:16;;;;;;;4.07;1.90;;;15.70;99.90;;;;;;5031358;28;20434;-69
2023/09/20 02:37:43;;;;;;;2.90;2.13;;;15.80;99.90;;;;;;5047417;28;20418;-70
2023/09/20 02:40:17;;;;;;;2.63;1.67;;;15.80;99.90;;;;;;5066544;22;20481;-73
2023/09/20 02:43:13;;;;;;;4.67;2.13;;;15.80;99.90;;;;;;5066299;28;20920;-74
2023/09/20 02:45:45;;;;;;;4.03;2.33;;;15.80;99.90;;;;;;5054555;28;20433;-73
2023/09/20 02:48:11;;;;;;;4.70;2.10;;;15.80;99.90;;;;;;5060913;28;20450;-73
2023/09/20 02:50:37;;;;;;;3.60;2.00;;;15.80;99.90;;;;;;5064879;28;21000;-73
2023/09/20 02:53:06;;;;;;;7.50;2.10;;;15.90;99.90;;;;;;5059160;28;20181;-73
2023/09/20 02:55:32;;;;;;;4.20;2.07;;;15.90;99.90;;;;;;5067277;28;20470;-72
2023/09/20 02:57:57;;;;;;;3.53;2.40;;;15.80;99.90;;;;;;5064321;28;20423;-72
2023/09/20 03:00:27;;;;;;;3.70;2.10;;;15.90;99.90;;;;;;5063459;28;20257;-72
2023/09/20 03:02:55;;;;;;;3.80;2.10;;;15.90;99.90;;;;;;5064059;28;20163;-71
2023/09/20 03:05:28;;;;;;;4.70;1.80;;;16.00;99.90;;;;;;5065620;28;20433;-72
2023/09/20 03:07:55;;;;;;;2.73;1.57;;;16.10;99.90;;;;;;5063890;28;20473;-73
2023/09/20 03:10:22;;;;;;;6.03;1.80;;;16.10;99.90;;;;;;5065384;28;20779;-73
2023/09/20 03:12:51;;;;;;;3.17;2.23;;;16.10;99.90;;;;;;5063314;28;20434;-73
2023/09/20 03:15:19;;;;;;;6.13;1.63;;;16.00;99.90;;;;;;5055571;28;20441;-73
2023/09/20 03:17:45;;;;;;;4.60;1.80;;;16.10;99.90;;;;;;5063348;28;20415;-72
2023/09/20 03:20:12;;;;;;;5.50;2.00;;;16.10;99.90;;;;;;5065889;28;20469;-73
2023/09/20 03:22:38;;;;;;;2.37;2.00;;;16.00;99.90;;;;;;5058441;28;20867;-72
2023/09/20 03:25:07;;;;;;;1.70;1.50;;;15.90;99.90;;;;;;5064914;28;20423;-73
2023/09/20 03:27:32;;;;;;;2.80;2.10;;;15.90;99.90;;;;;;5066693;28;20530;-72
2023/09/20 03:29:58;;;;;;;3.23;1.60;;;15.90;99.90;;;;;;5065197;28;20593;-72
2023/09/20 03:32:23;;;;;;;4.97;1.90;;;15.90;99.90;;;;;;5063110;28;20216;-72
2023/09/20 03:34:50;;;;;;;2.37;1.90;;;16.00;99.90;;;;;;5062926;28;20184;-74
2023/09/20 03:37:16;;;;;;;2.80;1.70;;;16.00;99.90;;;;;;5060077;28;20177;-73
2023/09/20 03:39:42;;;;;;;3.20;1.87;;;15.90;99.90;;;;;;5048206;28;20469;-74
2023/09/20 03:42:11;;;;;;;4.10;1.77;;;16.00;99.90;;;;;;5053546;28;20430;-73
2023/09/20 03:44:38;;;;;;;3.23;1.93;;;16.00;99.90;;;;;;5054290;28;20243;-73
2023/09/20 03:47:05;;;;;;;3.53;2.10;;;15.90;99.90;;;;;;5054505;28;20492;-73
2023/09/20 03:49:31;;;;;;;2.37;2.17;;;15.90;99.90;;;;;;5053906;28;20418;-73
2023/09/20 03:51:59;;;;;;;3.60;1.73;;;15.80;99.90;;;;;;5053869;28;20457;-72
2023/09/20 03:54:25;;;;;;;2.27;1.50;;;15.90;99.90;;;;;;5054251;28;20603;-72
2023/09/20 03:56:51;;;;;;;3.70;2.17;;;15.80;99.90;;;;;;5047441;28;20442;-72
2023/09/20 03:59:18;;;;;;;3.90;1.60;;;15.80;99.90;;;;;;5054144;28;20802;-72
2023/09/20 04:01:43;;;;;;;5.67;2.10;;;15.80;99.90;;;;;;5053632;28;20438;-73
2023/09/20 04:04:09;;;;;;;6.60;2.10;;;15.80;99.90;;;;;;5053644;28;20445;-72
2023/09/20 04:06:35;;;;;;;4.20;2.37;;;15.80;99.90;;;;;;5054386;28;20174;-73
2023/09/20 04:09:09;;;;;;;3.50;2.00;;;15.80;99.90;;;;;;5054864;28;20219;-73
2023/09/20 04:11:37;;;;;;;2.27;1.93;;;15.80;99.90;;;;;;5056617;28;20887;-74
2023/09/20 04:14:03;;;;;;;5.70;2.47;;;15.70;99.90;;;;;;5053175;28;20431;-74
2023/09/20 04:16:28;;;;;;;2.73;2.00;;;15.80;99.90;;;;;;5049650;28;20422;-73
2023/09/20 04:18:54;;;;;;;2.80;2.10;;;15.70;99.90;;;;;;5053954;28;20474;-73
2023/09/20 04:21:21;;;;;;;3.13;2.20;;;15.60;99.90;;;;;;5053454;28;20569;-74
2023/09/20 04:23:46;;;;;;;5.77;2.10;;;15.70;99.90;;;;;;5053635;28;20259;-72
2023/09/20 04:26:12;;;;;;;4.47;2.33;;;15.60;99.90;;;;;;5053407;28;20536;-73
2023/09/20 04:28:37;;;;;;;4.07;2.17;;;15.60;99.90;;;;;;5053804;28;20168;-72
2023/09/20 04:31:04;;;;;;;4.37;2.57;;;15.60;99.90;;;;;;5045405;28;20203;-72
2023/09/20 04:33:30;;;;;;;2.90;2.10;;;15.60;99.90;;;;;;5053450;28;20184;-73
2023/09/20 04:35:58;;;;;;;5.10;2.07;;;15.60;99.90;;;;;;5053599;28;20414;-74
2023/09/20 04:38:24;;;;;;;2.30;1.93;;;15.60;99.90;;;;;;5053843;28;20164;-73
2023/09/20 04:40:49;;;;;;;3.73;2.00;;;15.60;99.90;;;;;;5053240;28;20480;-73
2023/09/20 04:43:15;;;;;;;3.23;2.50;;;15.50;99.90;;;;;;5053270;28;20179;-73
2023/09/20 04:45:40;;;;;;;4.93;2.07;;;15.60;99.90;;;;;;5051956;28;20175;-74
2023/09/20 04:48:06;;;;;;;4.43;2.63;;;15.50;99.90;;;;;;5044855;28;20185;-73
2023/09/20 04:50:34;;;;;;;6.93;4.53;;;15.50;99.90;;;;;;5053428;28;20198;-71
2023/09/20 04:53:00;;;;;;;2.10;1.90;;;15.60;99.90;;;;;;5052882;28;20175;-73
2023/09/20 04:55:25;;;;;;;4.10;2.20;;;15.70;99.90;;;;;;5052616;28;20920;-71
2023/09/20 04:57:51;;;;;;;3.37;2.47;;;15.70;99.90;;;;;;5053032;28;20427;-71
2023/09/20 05:00:20;;;;;;;7.87;5.97;;;15.60;99.90;;;;;;5052841;28;20571;-72
2023/09/20 05:02:47;;;;;;;6.67;2.37;;;15.60;99.90;;;;;;5059871;28;20387;-71
2023/09/20 05:05:12;;;;;;;5.90;2.03;;;15.60;99.90;;;;;;5052295;28;20489;-71
2023/09/20 05:07:38;;;;;;;8.07;2.40;;;15.60;99.90;;;;;;5052800;28;20818;-70
2023/09/20 05:10:06;;;;;;;5.53;1.97;;;15.60;99.90;;;;;;5064106;28;20446;-70
2023/09/20 05:12:31;;;;;;;4.53;1.87;;;15.60;99.90;;;;;;5056904;28;20175;-70
2023/09/20 05:14:57;;;;;;;5.10;3.30;;;15.60;99.90;;;;;;5065956;28;20518;-71
2023/09/20 05:17:23;;;;;;;5.60;4.43;;;15.70;99.90;;;;;;5053252;28;20567;-71
2023/09/20 05:19:48;;;;;;;7.37;3.93;;;15.70;99.90;;;;;;5052844;28;20781;-70
2023/09/20 05:22:14;;;;;;;8.10;5.80;;;15.70;99.90;;;;;;5047244;28;20315;-70
2023/09/20 05:24:39;;;;;;;6.43;4.40;;;15.70;99.90;;;;;;5052197;28;20172;-71
2023/09/20 05:27:05;;;;;;;3.47;2.53;;;15.70;99.90;;;;;;5052540;28;20535;-70
2023/09/20 05:29:31;;;;;;;3.47;2.20;;;15.70;99.90;;;;;;5051947;28;20708;-70
2023/09/20 05:31:57;;;;;;;7.63;5.00;;;15.70;99.90;;;;;;5052398;28;20177;-70
2023/09/20 05:34:22;;;;;;;2.67;1.80;;;15.80;99.90;;;;;;5051980;28;20829;-72
2023/09/20 05:36:51;;;;;;;4.53;2.47;;;15.90;99.90;;;;;;5052365;28;20175;-70
2023/09/20 05:39:17;;;;;;;2.40;1.77;;;15.80;99.90;;;;;;5046638;28;20287;-71
2023/09/20 05:41:43;;;;;;;4.83;4.10;;;15.90;99.90;;;;;;5052246;28;20459;-70
2023/09/20 05:44:10;;;;;;;5.47;2.30;;;15.90;99.90;;;;;;5052207;28;20533;-70
2023/09/20 05:46:36;;;;;;;4.80;2.23;;;15.90;99.90;;;;;;5047872;28;20178;-71
2023/09/20 05:49:02;;;;;;;4.50;2.90;;;16.00;99.90;;;;;;5051623;28;20438;-69
2023/09/20 05:51:28;;;;;;;8.03;5.83;;;16.00;99.90;;;;;;5051696;28;20276;-70
2023/09/20 05:53:54;;;;;;;3.87;2.80;;;16.10;99.90;;;;;;5048032;28;20443;-71
2023/09/20 05:56:19;;;;;;;4.70;2.27;;;16.10;99.90;;;;;;5050784;28;20422;-72
2023/09/20 05:58:45;;;;;;;2.90;1.90;;;16.10;99.90;;;;;;5049596;28;21036;-71
2023/09/20 06:01:12;;;;;;;2.57;2.30;;;16.10;99.90;;;;;;5049283;28;20204;-72
2023/09/20 06:03:39;;;;;;;6.80;2.40;;;16.10;99.90;;;;;;5050898;28;20199;-73
2023/09/20 06:06:07;;;;;;;2.23;2.03;;;16.20;99.90;;;;;;5052604;28;20432;-72
2023/09/20 06:08:33;;;;;;;4.10;2.87;;;16.30;99.90;;;;;;5049136;28;20432;-73
2023/09/20 06:11:04;;;;;;;3.90;2.60;;;16.40;99.90;;;;;;5047817;28;20480;-73
2023/09/20 06:13:30;;;;;;;6.93;1.97;;;16.60;99.90;;;;;;5053966;28;20424;-73
2023/09/20 06:15:55;;;;;;;7.67;5.30;;;16.70;99.90;;;;;;5051916;28;20417;-72
2023/09/20 06:18:21;;;;;;;5.60;2.40;;;16.80;99.90;;;;;;5051888;28;20896;-73
2023/09/20 06:20:50;;;;;;;3.33;2.40;;;17.10;99.90;;;;;;5051831;28;20737;-72
2023/09/20 06:23:18;;;;;;;2.90;2.30;;;17.70;99.90;;;;;;5055952;28;20234;-73
2023/09/20 06:25:47;;;;;;;2.90;2.27;;;18.00;99.90;;;;;;5051709;28;20413;-73
2023/09/20 06:28:14;;;;;;;5.50;2.10;;;18.30;99.90;;;;;;5051620;28;20426;-72
2023/09/20 06:30:41;;;;;;;3.53;2.50;;;18.70;99.90;;;;;;5051654;28;20534;-73
2023/09/20 06:33:08;;;;;;;6.13;2.43;;;18.50;99.90;;;;;;5051214;28;20424;-73
2023/09/20 06:35:38;;;;;;;4.60;2.70;;;19.00;99.90;;;;;;5052398;28;20438;-71
2023/09/20 06:38:04;;;;;;;3.10;2.37;;;19.00;99.90;;;;;;5050274;28;20512;-72
2023/09/20 06:40:39;;;;;;;4.57;2.50;;;19.30;99.90;;;;;;5045484;28;20519;-73
2023/09/20 06:43:07;;;;;;;2.60;1.90;;;20.00;99.90;;;;;;5051625;28;20558;-72
2023/09/20 06:45:33;;;;;;;3.10;2.50;;;20.20;99.90;;;;;;5051683;28;20414;-73
2023/09/20 06:47:59;;;;;;;4.13;2.00;;;20.40;99.90;;;;;;5051693;28;20783;-73
2023/09/20 06:50:24;;;;;;;3.60;2.10;;;20.20;99.90;;;;;;5049847;28;20809;-72
2023/09/20 06:52:53;;;;;;;2.63;1.70;;;20.40;99.90;;;;;;5051283;28;20177;-72
2023/09/20 06:55:19;;;;;;;10.43;2.30;;;20.20;99.90;;;;;;5051427;28;20185;-73
2023/09/20 06:57:48;;;;;;;15.47;2.30;;;20.30;99.90;;;;;;5048130;28;20499;-73
2023/09/20 07:00:36;;;;;;;8.00;2.10;;;20.90;99.90;;;;;;5067225;28;20586;-73
2023/09/20 07:03:05;;;;;;;2.63;1.73;;;20.80;99.90;;;;;;5070647;28;20424;-73
2023/09/20 07:05:31;;;;;;;5.80;2.20;;;21.20;99.90;;;;;;5065757;28;20408;-73
2023/09/20 07:08:00;;;;;;;3.63;2.10;;;22.10;99.90;;;;;;5048082;28;20971;-73
2023/09/20 07:10:29;;;;;;;6.40;2.13;;;21.80;99.90;;;;;;5050647;28;20204;-73
2023/09/20 07:12:54;;;;;;;3.87;1.93;;;22.30;99.90;;;;;;5052297;28;20479;-73
2023/09/20 07:15:21;;;;;;;4.20;2.47;;;21.80;99.90;;;;;;5047355;28;20951;-73
2023/09/20 07:17:53;;;;;;;37.57;7.57;;;21.70;99.90;;;;;;5048070;28;20178;-73
2023/09/20 07:20:19;;;;;;;3.90;1.60;;;22.00;99.90;;;;;;5050407;28;20496;-74
2023/09/20 07:22:47;;;;;;;3.90;1.60;;;21.50;99.90;;;;;;5051004;28;20409;-74
2023/09/20 07:25:22;;;;;;;3.70;1.83;;;21.50;99.90;;;;;;5051211;28;20511;-73
2023/09/20 07:27:50;;;;;;;2.70;2.30;;;21.30;99.90;;;;;;5051180;28;20415;-73
2023/09/20 07:30:19;;;;;;;2.57;1.70;;;21.50;99.90;;;;;;5050590;28;20438;-73
2023/09/20 07:32:46;;;;;;;4.07;2.40;;;21.50;99.90;;;;;;5049041;28;20413;-73
2023/09/20 07:35:36;;;;;;;6.40;1.93;;;21.00;99.90;;;;;;5049025;28;20466;-73
2023/09/20 07:38:04;;;;;;;2.40;1.70;;;21.00;99.90;;;;;;5054946;28;20409;-73
2023/09/20 07:40:30;;;;;;;3.87;1.63;;;21.40;99.90;;;;;;5053919;28;20538;-73
2023/09/20 07:43:07;;;;;;;4.90;1.90;;;21.50;99.90;;;;;;5054151;28;20830;-74
2023/09/20 07:45:38;;;;;;;2.13;1.93;;;21.70;99.90;;;;;;5051673;28;20422;-74
2023/09/20 07:48:12;;;;;;;1.80;1.47;;;21.70;99.90;;;;;;5057078;28;20513;-73
2023/09/20 07:50:41;;;;;;;3.33;1.47;;;21.30;99.90;;;;;;5054973;28;20445;-74
2023/09/20 07:53:11;;;;;;;3.17;1.50;;;22.00;99.90;;;;;;5061919;28;20787;-73
2023/09/20 07:55:44;;;;;;;3.20;1.70;;;22.20;99.90;;;;;;5070866;28;20419;-73
2023/09/20 07:58:10;;;;;;;2.90;1.57;;;22.40;99.90;;;;;;5050193;28;20443;-74
2023/09/20 08:00:56;;;;;;;1.80;1.50;;;22.60;99.90;;;;;;5053601;28;20449;-73
2023/09/20 08:03:24;;;;;;;4.13;1.77;;;22.00;99.90;;;;;;5050933;28;20950;-73
2023/09/20 08:05:50;;;;;;;3.90;1.53;;;21.90;99.90;;;;;;5054157;28;20410;-73
2023/09/20 08:08:16;;;;;;;12.67;8.47;;;22.10;99.90;;;;;;5054661;28;20428;-73
2023/09/20 08:10:44;;;;;;;12.27;9.10;;;22.80;99.90;;;;;;5054321;28;20450;-72
2023/09/20 08:13:11;;;;;;;3.23;2.17;;;23.00;99.90;;;;;;5062766;28;20523;-73
2023/09/20 08:15:43;;;;;;;5.17;3.20;;;22.80;99.90;;;;;;5072678;28;20641;-72
2023/09/20 08:20:55;;;;;;;4.60;1.90;;;22.40;99.90;;;;;;5052825;28;20495;-73
2023/09/20 09:01:46;;;;;;;2.10;1.60;;;22.60;99.90;;;;;;5046274;28;20470;-72
2023/09/20 09:04:17;;;;;;;2.17;1.70;;;23.30;99.90;;;;;;5052321;28;20419;-72
2023/09/20 09:06:42;;;;;;;7.03;2.13;;;23.70;99.90;;;;;;5052639;28;20489;-72
2023/09/20 09:09:09;;;;;;;3.10;1.97;;;23.50;99.90;;;;;;5051461;28;20524;-72
2023/09/20 09:11:36;;;;;;;3.83;1.77;;;22.90;99.90;;;;;;5047923;28;20248;-72
2023/09/20 09:14:03;;;;;;;5.47;2.70;;;22.70;99.90;;;;;;5048724;28;20460;-72
2023/09/20 09:16:33;;;;;;;7.13;2.10;;;22.80;99.90;;;;;;5051854;28;20432;-73
2023/09/20 09:19:02;;;;;;;5.07;1.90;;;22.80;99.90;;;;;;5052333;28;20494;-73
2023/09/20 09:21:28;;;;;;;4.80;2.17;;;22.30;99.90;;;;;;5052763;28;20435;-73
2023/09/20 09:23:53;;;;;;;3.70;1.90;;;22.10;99.90;;;;;;5050861;28;20782;-73
2023/09/20 09:26:19;;;;;;;2.80;1.63;;;22.00;99.90;;;;;;5052416;28;20168;-73
2023/09/20 09:28:45;;;;;;;6.60;3.00;;;22.10;99.90;;;;;;5054892;28;20256;-73
2023/09/20 09:31:13;;;;;;;4.57;2.30;;;22.30;99.90;;;;;;5066111;28;20233;-73
2023/09/20 09:33:39;;;;;;;2.63;1.77;;;22.50;99.90;;;;;;5052092;28;20993;-73
2023/09/20 09:36:06;;;;;;;3.30;1.93;;;22.00;99.90;;;;;;5051988;28;20435;-73
2023/09/20 09:38:34;;;;;;;5.77;1.90;;;21.60;99.90;;;;;;5051550;28;20882;-73
2023/09/20 09:41:03;;;;;;;6.37;2.27;;;21.70;99.90;;;;;;5050608;28;20467;-73
2023/09/20 09:43:30;;;;;;;2.67;1.50;;;21.60;99.90;;;;;;5050837;28;20498;-73
2023/09/20 09:46:09;;;;;;;4.07;1.97;;;21.60;99.90;;;;;;5053167;28;20420;-73
2023/09/20 09:48:37;;;;;;;2.60;1.70;;;21.80;99.90;;;;;;5051249;28;20454;-74
2023/09/20 09:51:06;;;;;;;3.70;3.23;;;21.70;99.90;;;;;;5052059;28;20952;-73
2023/09/20 09:53:35;;;;;;;2.37;1.77;;;21.80;99.90;;;;;;5051333;28;20455;-73
2023/09/20 09:56:04;;;;;;;4.20;1.73;;;21.60;99.90;;;;;;5051001;28;20764;-73
2023/09/20 09:58:29;;;;;;;3.10;1.70;;;21.50;99.90;;;;;;5050468;28;20428;-74
2023/09/20 10:00:57;;;;;;;3.50;2.30;;;21.40;99.90;;;;;;5054732;28;20973;-73
2023/09/20 10:03:32;;;;;;;2.50;1.73;;;21.20;99.90;;;;;;5051443;28;20228;-73
2023/09/20 10:06:22;;;;;;;3.70;1.67;;;21.40;99.90;;;;;;5050822;28;20423;-73
2023/09/20 10:08:53;;;;;;;2.50;1.83;;;21.80;99.90;;;;;;5046522;28;20419;-73
2023/09/20 10:11:22;;;;;;;3.90;1.73;;;22.10;99.90;;;;;;5050296;28;20453;-73
2023/09/20 10:13:50;;;;;;;2.00;1.57;;;22.20;99.90;;;;;;5051487;28;20409;-73
2023/09/20 10:16:16;;;;;;;2.37;1.73;;;22.20;99.90;;;;;;5051803;28;20424;-73
2023/09/20 10:18:54;;;;;;;7.07;2.27;;;22.20;99.90;;;;;;5052924;28;20421;-73
2023/09/20 10:21:25;;;;;;;7.70;1.80;;;22.10;99.90;;;;;;5051351;28;20464;-73
2023/09/20 10:24:00;;;;;;;3.47;1.80;;;22.00;99.90;;;;;;5051700;28;20412;-73
2023/09/20 10:26:26;;;;;;;2.80;1.70;;;22.00;99.90;;;;;;5051697;28;20913;-73
2023/09/20 10:28:59;;;;;;;3.20;2.20;;;22.10;99.90;;;;;;5051453;28;20418;-74
2023/09/20 10:31:29;;;;;;;4.40;2.77;;;22.10;99.90;;;;;;5052313;28;20445;-74
2023/09/20 10:33:56;;;;;;;2.67;1.90;;;22.10;99.90;;;;;;5052043;28;20449;-73
2023/09/20 10:36:29;;;;;;;3.33;2.03;;;22.10;99.90;;;;;;5062653;28;20840;-73
2023/09/20 10:39:17;;;;;;;3.10;1.90;;;22.40;99.90;;;;;;5072057;28;20907;-73
2023/09/20 10:41:48;;;;;;;5.50;1.73;;;22.30;99.90;;;;;;5065176;28;20529;-73
2023/09/20 10:44:31;;;;;;;3.80;2.23;;;22.20;99.90;;;;;;5065498;28;20866;-73
2023/09/20 10:47:00;;;;;;;3.60;2.00;;;22.20;99.90;;;;;;5051489;28;20412;-73
2023/09/20 10:49:53;;;;;;;3.10;2.03;;;21.90;99.90;;;;;;5052261;28;20442;-73
2023/09/20 10:52:31;;;;;;;3.67;2.27;;;21.90;99.90;;;;;;5051193;28;20421;-74
2023/09/20 10:55:35;;;;;;;3.10;2.20;;;22.10;99.90;;;;;;5051489;28;20412;-73
2023/09/20 10:58:01;;;;;;;3.93;2.53;;;22.00;99.90;;;;;;5044207;28;20422;-73
2023/09/20 11:00:30;;;;;;;4.80;2.00;;;21.80;99.90;;;;;;5051957;28;20833;-73
2023/09/20 11:02:56;;;;;;;3.50;1.80;;;21.70;99.90;;;;;;5050503;28;20436;-73
2023/09/20 11:05:26;;;;;;;3.30;2.37;;;21.80;99.90;;;;;;5049979;28;21009;-74
2023/09/20 11:07:53;;;;;;;2.60;1.77;;;21.90;99.90;;;;;;5065466;28;20450;-73
2023/09/20 11:10:19;;;;;;;3.80;3.23;;;22.00;99.90;;;;;;5056392;28;20440;-74
2023/09/20 11:12:45;;;;;;;2.30;1.57;;;22.10;99.90;;;;;;5054309;28;20427;-73
2023/09/20 11:15:11;;;;;;;5.97;3.23;;;22.10;99.90;;;;;;5070318;28;20990;-73
2023/09/20 11:17:36;;;;;;;2.80;1.90;;;22.20;99.90;;;;;;5054675;28;20424;-73
2023/09/20 11:20:06;;;;;;;2.60;1.80;;;22.30;99.90;;;;;;5054839;28;20470;-75
2023/09/20 11:22:32;;;;;;;3.00;2.43;;;22.60;99.90;;;;;;5054797;28;20182;-74
2023/09/20 11:24:58;;;;;;;3.33;1.67;;;22.50;99.90;;;;;;5055157;28;20513;-74
2023/09/20 11:27:24;;;;;;;5.43;1.77;;;22.60;99.90;;;;;;5048122;28;20861;-73
2023/09/20 11:29:50;;;;;;;4.73;1.90;;;22.60;99.90;;;;;;5054489;28;20480;-73
2023/09/20 11:32:21;;;;;;;4.57;2.07;;;22.60;99.90;;;;;;5055057;28;20820;-74
2023/09/20 11:34:49;;;;;;;2.67;1.57;;;22.80;99.90;;;;;;5052572;28;20178;-73
2023/09/20 11:37:19;;;;;;;7.80;2.47;;;22.90;99.90;;;;;;5053643;28;20437;-73
2023/09/20 11:39:49;;;;;;;4.93;2.87;;;22.80;99.90;;;;;;5046771;28;20906;-73
2023/09/20 11:42:25;;;;;;;2.73;1.50;;;22.60;99.90;;;;;;5054340;28;20954;-73
2023/09/20 11:44:58;;;;;;;5.57;1.50;;;22.50;99.90;;;;;;5055051;28;20830;-73
2023/09/20 11:47:25;;;;;;;5.73;2.30;;;22.80;99.90;;;;;;5048378;28;20426;-73
2023/09/20 11:49:51;;;;;;;5.73;1.97;;;22.90;99.90;;;;;;5059211;28;20474;-73
2023/09/20 11:52:19;;;;;;;4.60;2.20;;;23.00;99.90;;;;;;5058534;28;20419;-74
2023/09/20 11:54:47;;;;;;;4.93;1.93;;;23.10;99.90;;;;;;5054180;28;20420;-72
2023/09/20 11:57:16;;;;;;;4.00;2.40;;;23.20;99.90;;;;;;5054213;28;20473;-73
2023/09/20 11:59:47;;;;;;;2.57;2.10;;;23.20;99.90;;;;;;5054077;28;20546;-73
2023/09/20 12:02:12;;;;;;;3.37;2.00;;;23.30;99.90;;;;;;5054249;28;20909;-72
2023/09/20 12:04:38;;;;;;;5.23;2.03;;;23.30;99.90;;;;;;5054166;28;20427;-73
2023/09/20 12:07:07;;;;;;;5.00;1.80;;;23.50;99.90;;;;;;5054249;28;20259;-73
2023/09/20 12:09:33;;;;;;;2.53;1.60;;;23.40;99.90;;;;;;5053649;28;20421;-73
2023/09/20 12:11:59;;;;;;;4.63;1.93;;;23.50;99.90;;;;;;5059728;28;20422;-73
2023/09/20 12:14:25;;;;;;;4.10;1.87;;;23.60;99.90;;;;;;5056627;28;20648;-73
2023/09/20 12:16:51;;;;;;;7.23;1.83;;;23.50;99.90;;;;;;5054392;28;20174;-73
2023/09/20 12:19:17;;;;;;;2.77;1.93;;;23.50;99.90;;;;;;5053995;28;20508;-73
2023/09/20 12:21:45;;;;;;;5.83;2.00;;;23.50;99.90;;;;;;5053838;28;20193;-73
2023/09/20 12:24:13;;;;;;;6.40;2.10;;;23.50;99.90;;;;;;5053593;28;20174;-73
2023/09/20 12:26:39;;;;;;;2.93;1.90;;;23.70;99.90;;;;;;5053954;28;20937;-73
2023/09/20 12:29:06;;;;;;;3.27;1.93;;;23.70;99.90;;;;;;5053888;28;20422;-73
2023/09/20 12:31:32;;;;;;;2.23;1.60;;;23.60;99.90;;;;;;5054090;28;20452;-73
2023/09/20 12:33:57;;;;;;;2.63;1.83;;;23.60;99.90;;;;;;5054069;28;20428;-74
2023/09/20 12:36:24;;;;;;;1.90;1.27;;;23.70;99.90;;;;;;5052771;28;20793;-74
2023/09/20 12:38:50;;;;;;;2.90;1.60;;;23.80;99.90;;;;;;5053483;28;20272;-73
2023/09/20 12:41:18;;;;;;;2.90;1.83;;;23.80;99.90;;;;;;5053658;28;20460;-73
2023/09/20 12:43:44;;;;;;;2.20;1.30;;;23.90;99.90;;;;;;5053281;28;20408;-73
2023/09/20 12:46:10;;;;;;;2.70;1.60;;;23.90;99.90;;;;;;5053686;28;20422;-73
2023/09/20 12:48:37;;;;;;;2.77;1.97;;;24.00;99.90;;;;;;5053685;28;20562;-73
2023/09/20 12:51:04;;;;;;;3.03;2.17;;;23.90;99.90;;;;;;5053682;28;20441;-74
2023/09/20 12:53:33;;;;;;;1.30;1.20;;;24.00;99.90;;;;;;5053232;28;20879;-74
2023/09/20 12:56:00;;;;;;;2.77;1.50;;;24.10;99.90;;;;;;5053462;28;20463;-73
2023/09/20 12:58:26;;;;;;;3.90;2.10;;;24.20;99.90;;;;;;5052942;28;20452;-73
2023/09/20 13:00:52;;;;;;;2.30;1.40;;;24.30;99.90;;;;;;5050760;28;20839;-73
2023/09/20 13:03:17;;;;;;;2.23;1.50;;;24.40;99.90;;;;;;5050766;28;20197;-73
2023/09/20 13:05:44;;;;;;;1.97;1.60;;;24.60;99.90;;;;;;5051779;28;20213;-73
2023/09/20 13:08:16;;;;;;;2.67;1.80;;;24.80;99.90;;;;;;5053189;28;20563;-73
2023/09/20 13:10:43;;;;;;;2.00;1.63;;;24.60;99.90;;;;;;5052205;28;20457;-74
2023/09/20 13:13:10;;;;;;;3.37;1.50;;;24.70;99.90;;;;;;5050943;28;20432;-73
2023/09/20 13:15:41;;;;;;;1.60;1.40;;;24.50;99.90;;;;;;5052645;28;20454;-73
2023/09/20 13:18:09;;;;;;;3.00;1.47;;;24.60;99.90;;;;;;5052713;28;20512;-74
2023/09/20 13:20:42;;;;;;;2.80;1.90;;;24.30;99.90;;;;;;5052598;28;20465;-74
2023/09/20 13:23:08;;;;;;;2.00;1.50;;;24.20;99.90;;;;;;5052781;28;20417;-74
2023/09/20 13:25:34;;;;;;;2.17;1.97;;;24.20;99.90;;;;;;5053094;28;20424;-75
2023/09/20 13:28:00;;;;;;;4.33;3.60;;;24.10;99.90;;;;;;5059171;28;20435;-74
2023/09/20 13:30:26;;;;;;;2.20;1.93;;;23.90;99.90;;;;;;5052426;28;20490;-75